Sandy, OR

6:27 PM PST on January 19, 2017 (GMT -0800)
Sandy City Center | | Change Station

Elev 948 ft 45.40 °N, 122.27 °W | Updated 4 seconds ago

Overcast
Overcast
43.4 °F
Feels Like 43 °F
N
1.0
Wind Variable Wind from SSE

Today
High -- | Low -- °F
--% Chance of Precip.
Yesterday
High -- | Low -- °F
Precip. -- in
Pressure 29.58 in
Visibility 10.0 miles
Clouds Scattered Clouds 5500 ft
Mostly Cloudy 7500 ft
Overcast 9000 ft
Windchill 43 °F
Dew Point 39 °F
Humidity 86%
Rainfall 0.00 in
Snow Depth Not available.
7:42 AM 4:58 PM
Waning Gibbous, 48% visible
METAR KTTD 200153Z AUTO 08005KT 10SM SCT055 BKN075 OVC090 04/03 A2958 RMK AO2 SLP016 T00390028
Pressure 29.58 in
Visibility 10.0 miles
Clouds Scattered Clouds 5500 ft
Mostly Cloudy 7500 ft
Overcast 9000 ft
Windchill 43 °F
Dew Point 39 °F
Humidity 86%
Rainfall 0.00 in
Snow Depth Not available.
7:42 AM 4:58 PM
Waning Gibbous, 48% visible
METAR KTTD 200153Z AUTO 08005KT 10SM SCT055 BKN075 OVC090 04/03 A2958 RMK AO2 SLP016 T00390028

Get Your Daily Forecast Email!

Thanks for signing up!

Be on the lookout for a verification email in your inbox.

You'll start receiving the daily forecast at 8 AM.

×

10-Day Weather Forecast

Almanac

Astronomy

Jan. 19, 2017 Rise Set
Actual Time
Civil Twilight
Nautical Twilight
Astronomical Twilight
Moon
Length of Visible Light
Length of Day
Tomorrow will be .
, % of the Moon is Illuminated

Today's Extremes

State Highs State Lows

Community

WunderPhotos

Upload Photos

1,962,540 photos uploaded!

WunderBlog® & News

Nearby

Air Quality

  Air Quality AQ Index Pollutant
Not available.

Snow Depth

Station Depth Elevation

Earthquake Activity

City Distance Mag. Time & Date
Minimum magnitude displayed is 2.5.

Coastal Water Temperatures

Place Temperature

Stations

Nearby Weather Stations

Station Location Temp. Windchill Dew Point Humidity Wind Precip. Elev Updated Type
                   

Watches & Warnings

Small Craft for Rough Bar Advisory
Issued: 2:37 PM PST Jan. 19, 2017 – National Weather Service

... Small Craft Advisory for rough bar now in effect until 10 PM
PST Friday...

* in the Main Channel...

* general seas... 12 to 14 ft through Friday morning.

* First Ebb... around 10 PM this evening. Seas near 18 ft with
breakers possible.

* Second Ebb... around 11 am Friday morning. Seas near 20 ft with
breakers.

Precautionary/preparedness actions...

A Small Craft Advisory for rough bar means that wave conditions
are expected to be hazardous to small craft in or near Harbor
entrances.




Http://www.Weather.Gov/Portland